Time;durP1;ratioP1;P1;durP2;ratioP2;P2;SDS_P1;SDS_P2;PMS_P1;PMS_P2;Temp;Humidity;BMP_temperature;BMP_pressure;BME280_temperature;BME280_humidity;BME280_pressure;Samples;Min_cycle;Max_cycle;Signal;HPM_P1;HPM_P2
2022/11/01 00:01:05;;;;;;;36.78;22.08;;;12.70;99.90;;;;;;5013681;28;20411;-76
2022/11/01 00:03:31;;;;;;;36.42;20.77;;;12.70;99.90;;;;;;5014533;28;20034;-76
2022/11/01 00:05:58;;;;;;;29.80;19.73;;;12.70;99.90;;;;;;5014199;28;20040;-76
2022/11/01 00:08:24;;;;;;;36.17;19.15;;;12.70;99.90;;;;;;5012550;28;20038;-76
2022/11/01 00:10:50;;;;;;;26.52;18.33;;;12.70;99.90;;;;;;5020488;28;20037;-77
2022/11/01 00:13:16;;;;;;;29.40;18.13;;;12.70;99.90;;;;;;5007046;28;20475;-76
2022/11/01 00:15:42;;;;;;;27.48;18.05;;;12.80;99.90;;;;;;5013134;28;20034;-77
2022/11/01 00:18:09;;;;;;;32.75;19.15;;;12.80;99.90;;;;;;5011775;28;20109;-76
2022/11/01 00:20:35;;;;;;;32.83;17.80;;;12.80;99.90;;;;;;5014302;28;20033;-76
2022/11/01 00:23:01;;;;;;;26.85;18.95;;;12.80;99.90;;;;;;5013801;28;20038;-77
2022/11/01 00:25:27;;;;;;;26.17;17.73;;;12.80;99.90;;;;;;5031633;28;20034;-76
2022/11/01 00:27:53;;;;;;;30.40;18.30;;;12.80;99.90;;;;;;5013769;28;20053;-76
2022/11/01 00:30:19;;;;;;;31.25;17.90;;;12.80;99.90;;;;;;5032510;28;20435;-76
2022/11/01 00:32:46;;;;;;;25.02;16.40;;;12.80;99.90;;;;;;5033113;28;20410;-76
2022/11/01 00:35:12;;;;;;;23.77;16.98;;;12.80;99.90;;;;;;5028831;28;20434;-76
2022/11/01 00:37:38;;;;;;;28.10;17.60;;;12.80;99.90;;;;;;5012475;28;20113;-76
2022/11/01 00:40:04;;;;;;;25.08;17.67;;;12.90;99.90;;;;;;5013874;28;20452;-76
2022/11/01 00:42:31;;;;;;;27.45;17.27;;;12.90;99.90;;;;;;5013572;28;20034;-76
2022/11/01 00:44:58;;;;;;;32.42;18.10;;;13.00;99.90;;;;;;5013612;28;20029;-76
2022/11/01 00:47:24;;;;;;;24.25;16.73;;;13.00;99.90;;;;;;5013004;28;20041;-75
2022/11/01 00:49:50;;;;;;;27.33;18.10;;;12.90;99.90;;;;;;5032537;28;20387;-75
2022/11/01 00:52:16;;;;;;;24.80;16.70;;;13.00;99.90;;;;;;5014143;28;20041;-76
2022/11/01 00:54:43;;;;;;;29.40;17.70;;;13.00;99.90;;;;;;5031994;28;20516;-76
2022/11/01 00:57:09;;;;;;;27.15;17.30;;;13.00;99.90;;;;;;5030323;28;20470;-76
2022/11/01 00:59:35;;;;;;;24.85;16.65;;;13.00;99.90;;;;;;5006970;28;20455;-76
2022/11/01 01:02:01;;;;;;;26.55;16.88;;;13.00;99.90;;;;;;5013055;28;20459;-76
2022/11/01 01:04:27;;;;;;;24.42;16.00;;;13.10;99.90;;;;;;5012636;28;20041;-75
2022/11/01 01:06:54;;;;;;;27.30;16.08;;;13.10;99.90;;;;;;5030005;28;20025;-76
2022/11/01 01:09:20;;;;;;;22.00;14.43;;;13.20;99.90;;;;;;4996045;28;20030;-77
2022/11/01 01:11:46;;;;;;;20.67;15.50;;;13.10;99.90;;;;;;5013289;28;20387;-75
2022/11/01 01:14:12;;;;;;;23.38;15.43;;;13.20;99.90;;;;;;5012398;28;20041;-75
2022/11/01 01:16:38;;;;;;;27.88;15.30;;;13.20;99.90;;;;;;5011637;28;20033;-76
2022/11/01 01:19:04;;;;;;;21.33;14.32;;;13.20;99.90;;;;;;5021876;28;20037;-76
2022/11/01 01:21:30;;;;;;;27.75;15.27;;;13.20;99.90;;;;;;5031877;28;20100;-76
2022/11/01 01:23:57;;;;;;;24.23;13.52;;;13.20;99.90;;;;;;5032262;28;20040;-76
2022/11/01 01:26:23;;;;;;;22.48;13.38;;;13.20;99.90;;;;;;4980187;28;20053;-75
2022/11/01 01:28:52;;;;;;;25.90;13.40;;;13.20;99.90;;;;;;5010950;28;20045;-75
2022/11/01 01:31:18;;;;;;;24.48;14.77;;;13.30;99.90;;;;;;5012087;28;20042;-76
2022/11/01 01:33:44;;;;;;;19.52;14.25;;;13.20;99.90;;;;;;5012714;28;20042;-77
2022/11/01 01:36:11;;;;;;;19.63;13.85;;;13.20;99.90;;;;;;5012519;28;20029;-76
2022/11/01 01:38:37;;;;;;;22.02;14.70;;;13.20;99.90;;;;;;5011175;28;20038;-76
2022/11/01 01:43:48;;;;;;;20.85;14.20;;;13.30;99.90;;;;;;5012721;28;20034;-76
2022/11/01 01:46:14;;;;;;;18.73;13.45;;;13.30;99.90;;;;;;5011825;28;20037;-76
2022/11/01 01:48:43;;;;;;;18.08;11.38;;;13.30;99.90;;;;;;5011294;28;20038;-76
2022/11/01 01:51:15;;;;;;;16.52;12.35;;;13.40;99.90;;;;;;5011890;28;20041;-77
2022/11/01 01:53:44;;;;;;;19.40;12.10;;;13.30;99.90;;;;;;5012546;28;20990;-77
2022/11/01 01:56:26;;;;;;;20.13;12.10;;;13.30;99.90;;;;;;5012150;28;20474;-77
2022/11/01 01:59:07;;;;;;;19.13;12.60;;;13.30;99.90;;;;;;5013871;28;20044;-76
2022/11/01 02:01:34;;;;;;;;;;;13.30;99.90;;;;;;5010236;28;20050;-76
2022/11/01 02:04:04;;;;;;;19.40;11.95;;;13.40;99.90;;;;;;5025325;28;19920;-77
2022/11/01 02:06:32;;;;;;;17.55;11.80;;;13.40;99.90;;;;;;5017769;28;20048;-77
2022/11/01 02:09:00;;;;;;;18.55;11.52;;;13.30;99.90;;;;;;5018340;28;20064;-77
2022/11/01 02:11:26;;;;;;;15.75;11.27;;;13.40;99.90;;;;;;5028132;28;20041;-77
2022/11/01 02:13:53;;;;;;;18.42;11.25;;;13.30;99.90;;;;;;5032174;28;20394;-77
2022/11/01 02:16:21;;;;;;;19.17;11.30;;;13.30;99.90;;;;;;5031614;28;20352;-77
2022/11/01 02:19:03;;;;;;;19.00;11.55;;;13.30;99.90;;;;;;5013764;28;20037;-77
2022/11/01 02:21:32;;;;;;;17.65;12.13;;;13.30;99.90;;;;;;5004755;28;20034;-77
2022/11/01 02:24:30;;;;;;;20.52;11.32;;;13.30;99.90;;;;;;5012517;28;20383;-76
2022/11/01 02:27:01;;;;;;;19.73;12.05;;;13.30;99.90;;;;;;5013050;28;20523;-77
2022/11/01 02:29:49;;;;;;;;;;;13.40;99.90;;;;;;5012448;28;20399;-76
2022/11/01 02:32:27;;;;;;;19.08;10.23;;;13.40;99.90;;;;;;5010692;28;19913;-77
2022/11/01 02:35:16;;;;;;;24.00;11.60;;;13.40;99.90;;;;;;5006202;28;20037;-76
2022/11/01 02:37:57;;;;;;;13.82;11.07;;;13.40;99.90;;;;;;5011512;28;20034;-77
2022/11/01 02:40:54;;;;;;;16.45;10.95;;;13.40;99.90;;;;;;5032958;28;20383;-77
2022/11/01 02:43:47;;;;;;;15.38;9.35;;;13.50;99.90;;;;;;5034396;28;20032;-77
2022/11/01 02:48:59;;;;;;;16.02;11.23;;;13.50;99.90;;;;;;5035404;28;20037;-77
2022/11/01 02:51:26;;;;;;;15.95;10.48;;;13.60;99.90;;;;;;5032685;28;20056;-77
2022/11/01 02:53:53;;;;;;;17.52;10.13;;;13.60;99.90;;;;;;5009477;28;20053;-77
2022/11/01 02:56:21;;;;;;;18.33;10.90;;;13.60;99.90;;;;;;5015043;28;20387;-76
2022/11/01 02:58:50;;;;;;;15.88;11.63;;;13.60;99.90;;;;;;5015776;28;20041;-76
2022/11/01 03:01:21;;;;;;;17.70;12.50;;;13.60;99.90;;;;;;5013642;28;20045;-76
2022/11/01 03:03:51;;;;;;;17.02;10.90;;;13.60;99.90;;;;;;4991300;28;20061;-75
2022/11/01 03:06:30;;;;;;;18.38;11.40;;;13.50;99.90;;;;;;5015087;28;20061;-74
2022/11/01 03:09:01;;;;;;;19.73;12.15;;;13.40;99.90;;;;;;4997751;28;20041;-74
2022/11/01 03:12:00;;;;;;;23.00;12.50;;;13.40;99.90;;;;;;5014654;28;20041;-74
2022/11/01 03:14:40;;;;;;;22.95;13.38;;;13.30;99.90;;;;;;5033734;28;20034;-74
2022/11/01 03:17:44;;;;;;;21.45;12.23;;;13.30;99.90;;;;;;5009837;28;20033;-73
2022/11/01 03:20:27;;;;;;;21.50;12.40;;;13.30;99.90;;;;;;5013040;28;20049;-74
2022/11/01 03:22:59;;;;;;;19.48;11.93;;;13.30;99.90;;;;;;5015506;28;20482;-73
2022/11/01 03:25:43;;;;;;;24.20;12.68;;;13.30;99.90;;;;;;5015197;28;20101;-73
2022/11/01 03:28:40;;;;;;;18.33;13.32;;;13.30;99.90;;;;;;5033995;28;20041;-73
2022/11/01 03:31:14;;;;;;;22.15;13.45;;;13.30;99.90;;;;;;5007291;28;20034;-74
2022/11/01 03:33:48;;;;;;;25.60;15.38;;;13.30;99.90;;;;;;5015097;28;20040;-73
2022/11/01 03:36:18;;;;;;;22.90;13.80;;;13.30;99.90;;;;;;5015605;28;20034;-74
2022/11/01 03:38:58;;;;;;;27.40;16.20;;;13.30;99.90;;;;;;5020010;28;20042;-75
2022/11/01 03:41:27;;;;;;;25.48;15.50;;;13.30;99.90;;;;;;5025399;28;20467;-74
2022/11/01 03:43:54;;;;;;;24.77;15.70;;;13.30;99.90;;;;;;5034266;28;20038;-74
2022/11/01 03:46:20;;;;;;;29.05;16.58;;;13.30;99.90;;;;;;5033058;28;20040;-74
2022/11/01 03:48:46;;;;;;;23.08;15.15;;;13.20;99.90;;;;;;5033565;28;20037;-74
2022/11/01 03:51:12;;;;;;;31.40;15.63;;;13.20;99.90;;;;;;5031744;28;20072;-74
2022/11/01 03:53:39;;;;;;;23.30;17.48;;;13.20;99.90;;;;;;5033759;28;20045;-74
2022/11/01 03:56:05;;;;;;;24.67;16.17;;;13.20;99.90;;;;;;5034164;28;20037;-74
2022/11/01 03:58:44;;;;;;;24.17;15.95;;;13.20;99.90;;;;;;5033924;28;20258;-74
2022/11/01 04:01:13;;;;;;;26.55;15.93;;;13.10;99.90;;;;;;5032293;28;20038;-74
2022/11/01 04:03:40;;;;;;;27.80;16.77;;;13.10;99.90;;;;;;5033990;28;20052;-74
2022/11/01 04:06:06;;;;;;;26.40;15.93;;;13.10;99.90;;;;;;5033788;28;20034;-73
2022/11/01 04:08:33;;;;;;;23.08;15.85;;;13.10;99.90;;;;;;5032891;28;20067;-74
2022/11/01 04:10:59;;;;;;;23.77;15.88;;;13.10;99.90;;;;;;5032436;28;20383;-74
2022/11/01 04:13:25;;;;;;;26.73;16.90;;;13.00;99.90;;;;;;5032900;28;20105;-73
2022/11/01 04:21:24;;;;;;;30.98;17.38;;;13.00;99.90;;;;;;5031729;28;20060;-74
2022/11/01 04:23:51;;;;;;;28.25;17.05;;;13.00;99.90;;;;;;5034047;28;20068;-74
2022/11/01 04:26:20;;;;;;;30.25;16.75;;;13.00;99.90;;;;;;5032628;28;20049;-73
2022/11/01 04:28:55;;;;;;;24.55;16.98;;;13.00;99.90;;;;;;5033523;28;20038;-74
2022/11/01 04:31:27;;;;;;;30.60;17.20;;;13.00;99.90;;;;;;5012146;28;20038;-74
2022/11/01 04:33:55;;;;;;;32.50;19.25;;;13.00;99.90;;;;;;5014528;28;20056;-73
2022/11/01 04:36:21;;;;;;;26.95;17.08;;;13.00;99.90;;;;;;5032762;28;20383;-74
2022/11/01 04:38:50;;;;;;;32.30;18.17;;;13.10;99.90;;;;;;5032989;28;20033;-73
2022/11/01 04:41:18;;;;;;;29.63;18.73;;;13.10;99.90;;;;;;5030906;28;20034;-73
2022/11/01 04:43:48;;;;;;;32.08;18.60;;;13.10;99.90;;;;;;5033116;28;20034;-73
2022/11/01 04:46:15;;;;;;;31.50;19.30;;;13.10;99.90;;;;;;5032898;28;20033;-73
2022/11/01 04:48:41;;;;;;;36.10;20.90;;;13.10;99.90;;;;;;5033079;28;20387;-72
2022/11/01 04:51:08;;;;;;;42.67;20.30;;;13.20;99.90;;;;;;5031435;28;20048;-73
2022/11/01 04:53:35;;;;;;;33.00;19.13;;;13.20;99.90;;;;;;5032288;28;20478;-73
2022/11/01 04:56:03;;;;;;;34.17;18.83;;;13.20;99.90;;;;;;5032404;28;20025;-73
2022/11/01 04:58:29;;;;;;;30.30;19.02;;;13.20;99.90;;;;;;5032040;28;20037;-73
2022/11/01 05:00:56;;;;;;;33.80;20.58;;;13.20;99.90;;;;;;5013067;28;20053;-73
2022/11/01 05:03:22;;;;;;;32.00;18.38;;;13.10;99.90;;;;;;5012719;28;20038;-73
2022/11/01 05:05:48;;;;;;;35.20;18.75;;;13.10;99.90;;;;;;5013541;28;20487;-73
2022/11/01 05:08:14;;;;;;;30.63;18.20;;;13.10;99.90;;;;;;5016705;28;20497;-72
2022/11/01 05:10:43;;;;;;;33.20;19.90;;;13.10;99.90;;;;;;5030810;28;20383;-73
2022/11/01 05:13:10;;;;;;;31.83;19.48;;;13.10;99.90;;;;;;5032363;28;20037;-73
2022/11/01 05:15:37;;;;;;;30.35;19.83;;;13.10;99.90;;;;;;5031437;28;20033;-73
2022/11/01 05:18:03;;;;;;;36.83;20.98;;;13.10;99.90;;;;;;5032251;28;20033;-73
2022/11/01 05:20:30;;;;;;;31.30;19.25;;;13.10;99.90;;;;;;5030080;28;20038;-73
2022/11/01 05:22:59;;;;;;;33.45;19.77;;;13.10;99.90;;;;;;5032623;28;20048;-73
2022/11/01 05:25:26;;;;;;;32.58;20.23;;;13.10;99.90;;;;;;5031337;28;20030;-73
2022/11/01 05:28:06;;;;;;;29.00;19.10;;;13.10;99.90;;;;;;5032144;28;20030;-73
2022/11/01 05:30:36;;;;;;;32.35;20.95;;;13.10;99.90;;;;;;5030343;28;20033;-74
2022/11/01 05:33:04;;;;;;;30.85;19.17;;;13.20;99.90;;;;;;5032272;28;20049;-74
2022/11/01 05:35:30;;;;;;;29.23;18.92;;;13.20;99.90;;;;;;5031916;28;20049;-74
2022/11/01 05:37:56;;;;;;;32.60;18.92;;;13.20;99.90;;;;;;5031812;28;20052;-73
2022/11/01 05:40:23;;;;;;;32.15;19.00;;;13.20;99.90;;;;;;5021119;28;20399;-74
2022/11/01 05:42:49;;;;;;;31.75;18.83;;;13.30;99.90;;;;;;5012944;28;20360;-74
2022/11/01 05:45:16;;;;;;;30.98;17.58;;;13.30;99.90;;;;;;5013450;28;20029;-73
2022/11/01 05:47:42;;;;;;;30.85;17.85;;;13.30;99.90;;;;;;5012464;28;20026;-74
2022/11/01 05:50:10;;;;;;;31.42;17.83;;;13.30;99.90;;;;;;5011461;28;20049;-73
2022/11/01 05:52:37;;;;;;;29.30;17.50;;;13.30;99.90;;;;;;5014786;28;20049;-73
2022/11/01 05:55:03;;;;;;;27.02;17.05;;;13.30;99.90;;;;;;5012875;28;20038;-74
2022/11/01 05:57:30;;;;;;;37.50;18.77;;;13.30;99.90;;;;;;5012492;28;20455;-74
2022/11/01 05:59:56;;;;;;;31.98;17.70;;;13.30;99.90;;;;;;5030048;28;20033;-73
2022/11/01 06:02:22;;;;;;;30.23;17.27;;;13.40;99.90;;;;;;5031569;28;20026;-74
2022/11/01 06:04:48;;;;;;;29.48;16.52;;;13.40;99.90;;;;;;5031533;28;20032;-73
2022/11/01 06:07:14;;;;;;;29.58;16.40;;;13.40;99.90;;;;;;5031716;28;20029;-73
2022/11/01 06:09:41;;;;;;;25.67;15.60;;;13.40;99.90;;;;;;5029920;28;20041;-74
2022/11/01 06:12:07;;;;;;;28.25;18.38;;;13.40;99.90;;;;;;5031307;28;20036;-74
2022/11/01 06:14:33;;;;;;;37.47;18.50;;;13.40;99.90;;;;;;5034025;28;20045;-74
2022/11/01 06:16:59;;;;;;;29.38;17.80;;;13.40;99.90;;;;;;5000632;28;20391;-73
2022/11/01 06:19:25;;;;;;;29.15;16.25;;;13.40;99.90;;;;;;5015505;28;20364;-74
2022/11/01 06:21:51;;;;;;;30.40;15.80;;;13.40;99.90;;;;;;5015935;28;20029;-74
2022/11/01 06:24:17;;;;;;;27.77;15.55;;;13.40;99.90;;;;;;5016456;28;20030;-74
2022/11/01 06:26:44;;;;;;;23.35;15.27;;;13.40;99.90;;;;;;5010380;28;20042;-74
2022/11/01 06:29:10;;;;;;;27.50;14.52;;;13.50;99.90;;;;;;5016582;28;20037;-74
2022/11/01 06:31:36;;;;;;;27.75;14.10;;;13.50;99.90;;;;;;5014419;28;20041;-74
2022/11/01 06:34:02;;;;;;;25.05;14.13;;;13.50;99.90;;;;;;5016430;28;20034;-74
2022/11/01 06:36:28;;;;;;;27.67;13.65;;;13.50;99.90;;;;;;5030409;28;20047;-74
2022/11/01 06:38:54;;;;;;;21.98;13.52;;;13.50;99.90;;;;;;5035481;28;20034;-73
2022/11/01 06:41:20;;;;;;;25.05;11.48;;;13.50;99.90;;;;;;5033410;28;20033;-74
2022/11/01 06:43:48;;;;;;;21.75;10.52;;;13.50;99.90;;;;;;5035169;28;20032;-73
2022/11/01 06:46:14;;;;;;;23.10;10.63;;;13.60;99.90;;;;;;5035563;28;20104;-74
2022/11/01 06:48:40;;;;;;;20.35;11.00;;;13.60;99.90;;;;;;5034693;28;20372;-74
2022/11/01 06:51:06;;;;;;;25.13;10.27;;;13.60;99.90;;;;;;5031830;28;20033;-77
2022/11/01 06:53:33;;;;;;;13.77;10.40;;;13.70;99.90;;;;;;5026000;28;20053;-75
2022/11/01 06:56:00;;;;;;;14.88;10.02;;;13.80;99.90;;;;;;5034722;28;20048;-75
2022/11/01 06:58:26;;;;;;;13.23;9.45;;;13.70;99.90;;;;;;5034082;28;20386;-75
2022/11/01 07:00:53;;;;;;;16.33;9.95;;;13.70;99.90;;;;;;5034835;28;20048;-75
2022/11/01 07:03:19;;;;;;;18.58;10.10;;;13.70;99.90;;;;;;5033821;28;20037;-75
2022/11/01 07:05:47;;;;;;;14.23;9.75;;;13.70;99.90;;;;;;5029378;28;20026;-75
2022/11/01 07:08:13;;;;;;;16.98;8.50;;;13.70;99.90;;;;;;4998025;28;20042;-76
2022/11/01 07:10:41;;;;;;;16.27;8.95;;;13.70;99.90;;;;;;5015280;28;20034;-76
2022/11/01 07:13:10;;;;;;;16.10;10.05;;;13.70;99.90;;;;;;5014429;28;20380;-76
2022/11/01 07:15:37;;;;;;;11.10;8.80;;;13.70;99.90;;;;;;5029260;28;20494;-76
2022/11/01 07:18:05;;;;;;;14.15;8.98;;;13.70;99.90;;;;;;5034435;28;20462;-75
2022/11/01 07:20:40;;;;;;;14.20;8.32;;;13.80;99.90;;;;;;5033761;28;20041;-76
2022/11/01 07:23:14;;;;;;;18.13;9.95;;;13.80;99.90;;;;;;5033298;28;20414;-76
2022/11/01 07:25:42;;;;;;;11.23;7.68;;;13.80;99.90;;;;;;5026430;28;20034;-75
2022/11/01 07:28:08;;;;;;;13.70;8.23;;;13.70;99.90;;;;;;5026244;28;20462;-75
2022/11/01 07:30:35;;;;;;;14.57;8.27;;;13.80;99.90;;;;;;5014324;28;20045;-70
2022/11/01 07:33:03;;;;;;;12.98;8.02;;;13.80;99.90;;;;;;5014566;28;20037;-76
2022/11/01 07:35:29;;;;;;;15.70;8.30;;;13.80;99.90;;;;;;5007892;28;20033;-76
2022/11/01 07:37:57;;;;;;;11.23;8.05;;;13.90;99.90;;;;;;5015567;28;20034;-77
2022/11/01 07:40:26;;;;;;;14.07;8.15;;;13.90;99.90;;;;;;5009132;28;20045;-78
2022/11/01 07:42:58;;;;;;;10.55;6.80;;;13.90;99.90;;;;;;5002537;28;20470;-77
2022/11/01 07:45:26;;;;;;;15.45;7.80;;;13.90;99.90;;;;;;4995685;28;20038;-76
2022/11/01 07:47:57;;;;;;;9.20;6.43;;;14.00;99.90;;;;;;5015736;28;20037;-76
2022/11/01 07:50:23;;;;;;;12.60;6.95;;;14.00;99.90;;;;;;5016213;28;20403;-77
2022/11/01 07:53:02;;;;;;;17.50;8.90;;;14.10;99.90;;;;;;5014042;28;20061;-76
2022/11/01 07:55:28;;;;;;;8.80;6.47;;;14.10;99.90;;;;;;5023791;28;20037;-76
2022/11/01 07:57:54;;;;;;;14.30;7.18;;;14.20;99.90;;;;;;5018675;28;20045;-76
2022/11/01 08:00:21;;;;;;;10.20;6.55;;;14.20;99.90;;;;;;5034859;28;20037;-76
2022/11/01 08:02:47;;;;;;;8.88;6.35;;;14.30;99.90;;;;;;5034677;28;20044;-78
2022/11/01 08:05:13;;;;;;;10.10;6.18;;;14.40;99.90;;;;;;5032466;28;20033;-77
2022/11/01 08:07:39;;;;;;;11.35;6.32;;;14.50;99.90;;;;;;5033293;28;20025;-77
2022/11/01 08:10:08;;;;;;;13.32;5.60;;;14.50;99.90;;;;;;5015117;28;20042;-77
2022/11/01 08:12:34;;;;;;;8.25;5.30;;;14.50;99.90;;;;;;5014196;28;20030;-77
2022/11/01 08:15:01;;;;;;;12.35;5.43;;;14.60;99.90;;;;;;5025359;28;20041;-77
2022/11/01 08:17:32;;;;;;;9.60;5.40;;;14.70;99.90;;;;;;5033071;28;20045;-78
2022/11/01 08:19:58;;;;;;;;;;;14.70;99.90;;;;;;5021318;28;20038;-77
2022/11/01 08:22:24;;;;;;;9.45;5.32;;;14.80;99.90;;;;;;5014388;28;19913;-75
2022/11/01 08:24:50;;;;;;;9.35;5.47;;;14.80;99.90;;;;;;5024598;28;20025;-75
2022/11/01 08:27:16;;;;;;;7.53;4.35;;;14.90;99.90;;;;;;5028231;28;20030;-78
2022/11/01 08:29:42;;;;;;;6.68;4.50;;;15.00;99.90;;;;;;5013857;28;20475;-79
2022/11/01 08:32:09;;;;;;;8.05;4.68;;;15.00;99.90;;;;;;5014077;28;20034;-79
2022/11/01 08:34:35;;;;;;;8.32;4.13;;;15.00;99.90;;;;;;5014108;28;20034;-78
2022/11/01 08:37:01;;;;;;;7.05;3.92;;;15.10;99.90;;;;;;5013343;28;20030;-78
2022/11/01 08:39:27;;;;;;;6.78;4.50;;;15.10;99.90;;;;;;5013045;28;20034;-79
2022/11/01 08:41:53;;;;;;;10.90;4.43;;;15.20;99.90;;;;;;5023235;28;20115;-78
2022/11/01 08:44:19;;;;;;;8.23;4.07;;;15.20;99.90;;;;;;5031703;28;20025;-79
2022/11/01 08:46:46;;;;;;;5.82;3.60;;;15.10;99.90;;;;;;5017352;28;20583;-79
2022/11/01 08:49:12;;;;;;;12.32;3.97;;;15.10;99.90;;;;;;4996429;28;20038;-79
2022/11/01 08:51:38;;;;;;;5.53;3.60;;;15.10;99.90;;;;;;5013196;28;20029;-79
2022/11/01 08:54:08;;;;;;;7.78;4.15;;;15.00;99.90;;;;;;4994642;28;20817;-76
2022/11/01 08:56:35;;;;;;;7.63;3.43;;;15.00;99.90;;;;;;5013096;28;20034;-77
2022/11/01 08:59:01;;;;;;;9.90;4.07;;;14.90;99.90;;;;;;5013854;28;20273;-78
2022/11/01 09:01:27;;;;;;;8.63;4.43;;;15.00;99.90;;;;;;5013207;28;20026;-79
2022/11/01 09:03:57;;;;;;;8.15;4.80;;;15.00;99.90;;;;;;5025725;28;20037;-79
2022/11/01 09:06:24;;;;;;;7.68;3.92;;;15.00;99.90;;;;;;5014903;28;20037;-79
2022/11/01 09:08:52;;;;;;;9.27;5.88;;;15.00;99.90;;;;;;5032102;28;20037;-79
2022/11/01 09:11:19;;;;;;;7.10;3.63;;;15.00;99.90;;;;;;5025677;28;20042;-79
2022/11/01 09:13:45;;;;;;;5.65;3.88;;;15.10;99.90;;;;;;5011804;28;20042;-79
2022/11/01 09:16:11;;;;;;;8.55;4.35;;;15.20;99.90;;;;;;4995862;28;20046;-79
2022/11/01 09:18:38;;;;;;;9.73;4.60;;;15.30;99.90;;;;;;4994838;28;20508;-79
2022/11/01 09:21:06;;;;;;;10.73;4.95;;;15.40;99.90;;;;;;5013638;28;20033;-78
2022/11/01 09:23:33;;;;;;;9.63;5.30;;;15.40;99.90;;;;;;5012603;28;20045;-78
2022/11/01 09:26:08;;;;;;;10.48;4.70;;;15.40;99.90;;;;;;5013014;28;20383;-78
2022/11/01 09:28:35;;;;;;;10.20;4.78;;;15.40;99.90;;;;;;5012469;28;20034;-78
2022/11/01 09:31:06;;;;;;;7.07;4.05;;;15.40;99.90;;;;;;5031567;28;20041;-77
2022/11/01 09:33:33;;;;;;;12.00;4.85;;;15.30;99.90;;;;;;5012057;28;20030;-78
2022/11/01 09:35:59;;;;;;;9.68;3.80;;;15.20;99.90;;;;;;5030747;28;20052;-75
2022/11/01 09:38:26;;;;;;;4.78;1.83;;;14.80;99.90;;;;;;5031471;28;20032;-74
2022/11/01 09:41:00;;;;;;;8.57;3.92;;;14.40;99.90;;;;;;5031140;28;20470;-75
2022/11/01 09:43:31;;;;;;;7.90;3.45;;;14.20;99.90;;;;;;5031338;28;20483;-78
2022/11/01 09:46:00;;;;;;;7.85;2.85;;;14.00;99.90;;;;;;5014874;28;20046;-77
2022/11/01 09:48:28;;;;;;;3.33;1.70;;;13.90;99.90;;;;;;5012324;28;20030;-76
2022/11/01 09:50:55;;;;;;;4.28;1.80;;;13.80;99.90;;;;;;5018449;28;20056;-77
2022/11/01 09:53:24;;;;;;;6.57;2.13;;;13.80;99.90;;;;;;5031504;28;20045;-76
2022/11/01 09:55:54;;;;;;;3.90;1.67;;;13.90;99.90;;;;;;5029962;28;20140;-76
2022/11/01 09:58:30;;;;;;;1.97;0.87;;;13.90;99.90;;;;;;5031723;28;20040;-76
2022/11/01 10:01:09;;;;;;;4.85;0.80;;;14.20;99.90;;;;;;5030007;28;20501;-77
2022/11/01 10:03:46;;;;;;;2.35;0.88;;;14.30;99.90;;;;;;5011393;28;20045;-77
2022/11/01 10:06:35;;;;;;;10.93;1.42;;;14.40;99.90;;;;;;4978816;28;20049;-77
2022/11/01 10:09:23;;;;;;;3.33;0.95;;;14.50;99.90;;;;;;4994379;28;20042;-78
2022/11/01 10:12:37;;;;;;;2.92;0.70;;;14.50;99.90;;;;;;5013586;28;20037;-77
2022/11/01 10:15:27;;;;;;;1.48;0.50;;;14.70;99.90;;;;;;5012884;28;20041;-78
2022/11/01 10:17:57;;;;;;;1.33;0.77;;;14.80;99.90;;;;;;5030795;28;20033;-77
2022/11/01 10:20:32;;;;;;;4.38;0.85;;;15.00;99.90;;;;;;5031115;28;20048;-79
2022/11/01 10:22:59;;;;;;;3.22;0.57;;;15.10;99.90;;;;;;5030528;28;20033;-77
2022/11/01 10:25:30;;;;;;;2.22;0.68;;;15.10;98.70;;;;;;5011737;28;20045;-77
2022/11/01 10:28:19;;;;;;;1.05;0.43;;;15.10;99.90;;;;;;5030641;28;20034;-77
2022/11/01 10:30:52;;;;;;;2.28;0.98;;;15.10;99.90;;;;;;5015754;28;20045;-75
2022/11/01 10:33:28;;;;;;;3.65;0.52;;;15.10;97.70;;;;;;4994262;28;20038;-74
2022/11/01 10:36:02;;;;;;;8.10;3.67;;;15.10;97.30;;;;;;5020593;28;20030;-76
2022/11/01 10:38:35;;;;;;;9.05;3.10;;;15.10;95.60;;;;;;5031369;28;20029;-75
2022/11/01 10:41:10;;;;;;;1.45;0.60;;;15.10;98.30;;;;;;5020291;28;20041;-75
2022/11/01 10:43:41;;;;;;;3.72;0.70;;;15.30;97.40;;;;;;5009905;28;20464;-77
2022/11/01 10:46:16;;;;;;;3.10;0.75;;;15.40;98.60;;;;;;4994267;28;20046;-76
2022/11/01 10:48:55;;;;;;;4.85;0.65;;;15.50;96.60;;;;;;5011154;28;20030;-77
2022/11/01 10:51:25;;;;;;;3.47;0.93;;;15.70;95.00;;;;;;4994660;28;20069;-76
2022/11/01 10:53:54;;;;;;;2.83;0.68;;;15.90;96.80;;;;;;5008514;28;20058;-76
2022/11/01 10:56:28;;;;;;;4.05;1.23;;;16.00;91.60;;;;;;5011637;28;20038;-76
2022/11/01 10:58:54;;;;;;;2.75;0.70;;;16.00;93.20;;;;;;5013280;28;20049;-76
2022/11/01 11:01:24;;;;;;;3.50;0.70;;;16.00;91.20;;;;;;5034124;28;20037;-76
2022/11/01 11:03:52;;;;;;;8.43;0.70;;;15.90;91.90;;;;;;5017691;28;20060;-75
2022/11/01 11:06:19;;;;;;;3.70;0.77;;;15.90;93.00;;;;;;5015116;28;20038;-75
2022/11/01 11:08:50;;;;;;;3.17;0.90;;;16.10;93.30;;;;;;5014047;28;20029;-75
2022/11/01 11:11:29;;;;;;;1.40;0.77;;;16.30;88.50;;;;;;5015218;28;20041;-76
2022/11/01 11:13:57;;;;;;;5.00;1.63;;;16.30;86.90;;;;;;4995409;28;20053;-75
2022/11/01 11:16:39;;;;;;;2.67;1.20;;;16.20;90.00;;;;;;5015247;28;20038;-75
2022/11/01 11:19:22;;;;;;;2.70;0.93;;;16.30;91.20;;;;;;5008252;28;20069;-75
2022/11/01 11:21:51;;;;;;;2.55;0.75;;;16.40;91.90;;;;;;5033363;28;20034;-76
2022/11/01 11:24:27;;;;;;;6.70;1.00;;;16.50;88.00;;;;;;5032481;28;20042;-76
2022/11/01 11:26:55;;;;;;;4.80;1.00;;;16.60;81.20;;;;;;5018906;28;20025;-76
2022/11/01 11:29:44;;;;;;;4.57;0.60;;;16.60;85.00;;;;;;5013966;28;20050;-76
2022/11/01 11:32:19;;;;;;;4.38;1.05;;;16.70;81.20;;;;;;5014820;28;20049;-76
2022/11/01 11:34:54;;;;;;;6.03;0.93;;;16.80;82.30;;;;;;4989405;28;20030;-75
2022/11/01 11:37:27;;;;;;;2.75;0.80;;;16.80;80.20;;;;;;5014567;28;20041;-76
2022/11/01 11:40:14;;;;;;;3.13;0.60;;;16.80;79.40;;;;;;5008382;28;20041;-75
2022/11/01 11:42:40;;;;;;;4.43;0.98;;;16.80;77.60;;;;;;5022761;28;20033;-76
2022/11/01 11:45:36;;;;;;;2.72;0.73;;;16.70;79.70;;;;;;5028926;28;20029;-76
2022/11/01 11:48:22;;;;;;;2.85;0.77;;;16.80;74.40;;;;;;5008107;28;20471;-76
2022/11/01 11:51:02;;;;;;;4.05;0.60;;;16.90;76.40;;;;;;5033581;28;20048;-77
2022/11/01 11:53:29;;;;;;;2.30;0.63;;;17.00;77.00;;;;;;5033523;28;20050;-75
2022/11/01 11:55:57;;;;;;;2.50;0.50;;;16.90;66.50;;;;;;5031216;28;20026;-75
2022/11/01 11:58:50;;;;;;;3.97;0.60;;;16.80;68.00;;;;;;5033118;28;20033;-75
2022/11/01 12:01:23;;;;;;;2.45;0.70;;;16.90;69.90;;;;;;5033047;28;20358;-75
2022/11/01 12:03:54;;;;;;;3.53;0.70;;;17.10;67.00;;;;;;5019706;28;20041;-75
2022/11/01 12:06:23;;;;;;;1.63;0.43;;;17.00;65.30;;;;;;5021264;28;20513;-74
2022/11/01 12:08:52;;;;;;;1.30;0.32;;;17.10;67.80;;;;;;5012587;28;20037;-75
2022/11/01 12:11:20;;;;;;;3.90;1.92;;;17.20;69.50;;;;;;5026276;28;20042;-75
2022/11/01 12:14:04;;;;;;;3.50;0.75;;;17.00;62.50;;;;;;5027904;28;20041;-75
2022/11/01 12:16:40;;;;;;;2.33;1.17;;;17.00;62.20;;;;;;5022347;28;20037;-75
2022/11/01 12:19:25;;;;;;;3.08;0.70;;;17.10;58.50;;;;;;5015144;28;20045;-75
2022/11/01 12:21:52;;;;;;;4.60;0.60;;;17.10;64.90;;;;;;5030421;28;20052;-75
2022/11/01 12:24:26;;;;;;;5.03;0.75;;;17.30;64.90;;;;;;5032654;28;20029;-75
2022/11/01 12:27:00;;;;;;;3.90;0.80;;;17.30;56.00;;;;;;5013635;28;20403;-75
2022/11/01 12:29:36;;;;;;;4.07;0.65;;;17.30;56.50;;;;;;5012885;28;20037;-75
2022/11/01 12:32:27;;;;;;;3.38;0.68;;;17.10;54.20;;;;;;5014348;28;20041;-76
2022/11/01 12:34:56;;;;;;;3.55;0.50;;;17.10;58.40;;;;;;5013355;28;20038;-74
2022/11/01 12:37:30;;;;;;;4.07;0.50;;;17.20;57.40;;;;;;5018975;28;20038;-75
2022/11/01 12:40:15;;;;;;;2.47;0.68;;;17.20;58.70;;;;;;5016888;28;20037;-75
2022/11/01 12:43:08;;;;;;;4.15;0.85;;;17.40;59.50;;;;;;5014392;28;20391;-75
2022/11/01 12:45:51;;;;;;;5.60;1.00;;;17.60;53.20;;;;;;5023814;28;20462;-75
2022/11/01 12:48:25;;;;;;;2.47;1.48;;;17.70;51.00;;;;;;5012565;28;20042;-74
2022/11/01 12:51:06;;;;;;;4.30;0.80;;;17.60;52.20;;;;;;4995646;28;20105;-75
2022/11/01 12:53:36;;;;;;;3.45;0.95;;;17.70;52.00;;;;;;5008564;28;20050;-75
2022/11/01 12:56:02;;;;;;;2.00;0.60;;;17.70;54.80;;;;;;5008340;28;20041;-75
2022/11/01 12:58:29;;;;;;;2.60;0.63;;;17.70;55.50;;;;;;4995158;28;20365;-76
2022/11/01 13:01:00;;;;;;;3.38;0.75;;;17.70;52.00;;;;;;5026140;28;20387;-75
2022/11/01 13:03:48;;;;;;;7.63;0.80;;;17.80;48.30;;;;;;4998329;28;20037;-75